Time;durP1;ratioP1;P1;durP2;ratioP2;P2;SDS_P1;SDS_P2;PMS_P1;PMS_P2;Temp;Humidity;BMP_temperature;BMP_pressure;BME280_temperature;BME280_humidity;BME280_pressure;Samples;Min_cycle;Max_cycle;Signal;HPM_P1;HPM_P2
2022/08/06 00:01:02;;;;;;;4.30;2.47;;;21.50;99.90;;;;;;5053021;28;20969;-58
2022/08/06 00:03:29;;;;;;;3.63;2.73;;;21.40;99.90;;;;;;5052936;28;20485;-56
2022/08/06 00:05:58;;;;;;;2.63;2.43;;;21.40;99.90;;;;;;5052902;28;20452;-56
2022/08/06 00:08:25;;;;;;;3.40;2.57;;;21.40;99.90;;;;;;5052706;28;21003;-56
2022/08/06 00:10:52;;;;;;;5.20;2.40;;;21.40;99.90;;;;;;5052802;28;20489;-56
2022/08/06 00:13:19;;;;;;;2.77;2.33;;;21.50;99.90;;;;;;5052982;28;20451;-56
2022/08/06 00:15:46;;;;;;;3.30;2.90;;;21.60;99.90;;;;;;5052571;28;20536;-55
2022/08/06 00:18:13;;;;;;;4.67;2.57;;;21.90;99.90;;;;;;5053054;28;20451;-56
2022/08/06 00:20:41;;;;;;;2.77;2.53;;;22.20;99.90;;;;;;5052494;28;20571;-56
2022/08/06 00:23:10;;;;;;;2.70;2.50;;;22.20;99.90;;;;;;5052493;28;20481;-56
2022/08/06 00:25:37;;;;;;;4.07;2.53;;;22.30;99.90;;;;;;5053084;28;20449;-56
2022/08/06 00:28:04;;;;;;;2.53;2.33;;;22.30;99.90;;;;;;5052982;28;20449;-56
2022/08/06 00:30:32;;;;;;;2.37;2.17;;;22.30;99.90;;;;;;5056593;28;21067;-56
2022/08/06 00:32:59;;;;;;;2.70;2.50;;;22.40;99.90;;;;;;5057086;28;20460;-56
2022/08/06 00:35:26;;;;;;;3.90;3.27;;;22.30;99.90;;;;;;5056654;28;20945;-56
2022/08/06 00:37:53;;;;;;;3.20;2.93;;;22.40;99.90;;;;;;5056620;28;20449;-56
2022/08/06 00:40:23;;;;;;;3.13;2.20;;;22.50;99.90;;;;;;5056872;28;20572;-56
2022/08/06 00:42:51;;;;;;;5.50;2.47;;;22.50;99.90;;;;;;5056315;28;20449;-56
2022/08/06 00:45:18;;;;;;;3.00;2.70;;;22.50;99.90;;;;;;5056360;28;20483;-56
2022/08/06 00:47:45;;;;;;;3.13;2.43;;;22.40;99.90;;;;;;5056568;28;20796;-56
2022/08/06 00:50:13;;;;;;;2.90;2.70;;;22.50;99.90;;;;;;5056712;28;20895;-55
2022/08/06 00:52:40;;;;;;;2.63;2.43;;;22.50;99.90;;;;;;5056196;28;20564;-55
2022/08/06 00:55:08;;;;;;;2.43;2.23;;;22.60;99.90;;;;;;5056690;28;20452;-56
2022/08/06 00:57:36;;;;;;;4.60;2.80;;;22.50;99.80;;;;;;5056726;28;20532;-56
2022/08/06 01:00:04;;;;;;;4.37;2.30;;;22.20;99.90;;;;;;5056520;28;20547;-56
2022/08/06 01:02:32;;;;;;;3.13;2.33;;;22.20;99.90;;;;;;5056399;28;20454;-56
2022/08/06 01:04:59;;;;;;;4.43;2.50;;;22.20;99.10;;;;;;5056176;28;20453;-55
2022/08/06 01:07:26;;;;;;;2.83;2.57;;;22.00;99.90;;;;;;5056136;28;20787;-56
2022/08/06 01:09:53;;;;;;;4.63;2.30;;;22.10;99.50;;;;;;5055832;28;20572;-56
2022/08/06 01:12:20;;;;;;;2.83;2.50;;;22.20;99.60;;;;;;5056224;28;20520;-56
2022/08/06 01:14:49;;;;;;;4.57;2.77;;;22.10;99.90;;;;;;5055877;28;20452;-56
2022/08/06 01:17:21;;;;;;;3.20;2.13;;;22.10;99.70;;;;;;5056142;28;20563;-56
2022/08/06 01:19:54;;;;;;;3.40;2.50;;;22.20;99.80;;;;;;5056317;28;20484;-56
2022/08/06 01:22:43;;;;;;;2.47;2.27;;;22.10;98.70;;;;;;5056008;28;20973;-56
2022/08/06 01:25:40;;;;;;;2.10;2.00;;;22.00;99.30;;;;;;5055889;28;20418;-56
2022/08/06 01:28:13;;;;;;;2.90;2.00;;;22.10;98.60;;;;;;5055820;28;20948;-56
2022/08/06 01:30:47;;;;;;;2.97;2.20;;;22.20;99.10;;;;;;5055928;28;20466;-56
2022/08/06 01:33:21;;;;;;;2.20;2.00;;;22.30;98.60;;;;;;5056132;28;20521;-55
2022/08/06 01:35:53;;;;;;;3.17;2.20;;;22.20;98.70;;;;;;5055690;28;20440;-55
2022/08/06 01:38:25;;;;;;;4.43;2.43;;;22.20;99.50;;;;;;5055504;28;20430;-55
2022/08/06 01:40:54;;;;;;;2.73;2.10;;;22.10;98.70;;;;;;5054979;28;20491;-55
2022/08/06 01:43:24;;;;;;;2.67;2.13;;;22.00;97.80;;;;;;5055293;28;20445;-55
2022/08/06 01:45:53;;;;;;;4.70;2.50;;;21.90;98.90;;;;;;5055249;28;20592;-56
2022/08/06 01:48:24;;;;;;;4.17;2.10;;;22.00;98.70;;;;;;5055584;28;20490;-55
2022/08/06 01:50:56;;;;;;;2.33;2.17;;;22.10;98.30;;;;;;5055548;28;20469;-55
2022/08/06 01:53:29;;;;;;;2.43;2.23;;;22.00;99.00;;;;;;5055305;28;20417;-55
2022/08/06 01:56:00;;;;;;;3.13;2.40;;;22.00;97.40;;;;;;5055718;28;20939;-55
2022/08/06 01:58:33;;;;;;;2.50;1.97;;;21.90;97.40;;;;;;5055227;28;20435;-55
2022/08/06 02:01:05;;;;;;;2.30;2.07;;;21.90;97.40;;;;;;5055396;28;20534;-56
2022/08/06 02:03:37;;;;;;;2.60;2.33;;;21.80;97.50;;;;;;5055369;28;20920;-55
2022/08/06 02:06:06;;;;;;;2.07;1.87;;;21.70;97.70;;;;;;5055183;28;20902;-55
2022/08/06 02:08:35;;;;;;;2.80;2.37;;;21.90;97.50;;;;;;5054964;28;20540;-56
2022/08/06 02:11:05;;;;;;;2.73;2.33;;;21.80;98.00;;;;;;5054854;28;20489;-55
2022/08/06 02:13:36;;;;;;;5.63;2.30;;;21.70;97.40;;;;;;5054609;28;20451;-56
2022/08/06 02:16:06;;;;;;;2.80;2.10;;;21.80;97.60;;;;;;5055117;28;20436;-56
2022/08/06 02:18:37;;;;;;;2.93;2.40;;;21.60;97.20;;;;;;5054719;28;20898;-56
2022/08/06 02:21:08;;;;;;;7.57;2.57;;;21.50;97.40;;;;;;5054746;28;20894;-55
2022/08/06 02:23:36;;;;;;;5.07;2.40;;;21.50;97.50;;;;;;5054998;28;20513;-55
2022/08/06 02:26:08;;;;;;;4.73;2.70;;;21.40;99.20;;;;;;5054518;28;20453;-56
2022/08/06 02:28:39;;;;;;;4.10;2.57;;;21.50;97.70;;;;;;5055082;28;20445;-56
2022/08/06 02:31:06;;;;;;;2.53;2.00;;;21.50;98.00;;;;;;5054797;28;20471;-56
2022/08/06 02:33:33;;;;;;;2.80;2.00;;;21.40;97.80;;;;;;5054720;28;20449;-56
2022/08/06 02:36:08;;;;;;;2.37;2.17;;;21.30;98.20;;;;;;5054895;28;20473;-56
2022/08/06 02:38:38;;;;;;;3.93;2.33;;;21.30;98.50;;;;;;5055002;28;20447;-56
2022/08/06 02:41:16;;;;;;;2.70;2.23;;;21.40;99.20;;;;;;5054791;28;20513;-56
2022/08/06 02:43:52;;;;;;;2.93;2.60;;;21.50;97.90;;;;;;5054545;28;20426;-56
2022/08/06 02:46:26;;;;;;;2.40;2.17;;;21.40;98.10;;;;;;5054125;28;20547;-55
2022/08/06 02:49:00;;;;;;;2.67;2.10;;;21.30;98.60;;;;;;5054323;28;20518;-56
2022/08/06 02:51:33;;;;;;;4.23;2.37;;;21.40;98.50;;;;;;5053240;28;21011;-56
2022/08/06 02:54:05;;;;;;;4.10;2.20;;;21.40;98.30;;;;;;5054555;28;20458;-56
2022/08/06 02:56:34;;;;;;;2.60;2.40;;;21.40;98.40;;;;;;5054150;28;20787;-56
2022/08/06 02:59:04;;;;;;;2.90;1.83;;;21.40;98.20;;;;;;5053914;28;20449;-55
2022/08/06 03:01:37;;;;;;;3.80;2.20;;;21.30;98.90;;;;;;5054286;28;20471;-55
2022/08/06 03:04:07;;;;;;;4.73;2.40;;;21.20;97.80;;;;;;5054473;28;20522;-56
2022/08/06 03:06:37;;;;;;;4.03;2.77;;;21.20;98.20;;;;;;5054216;28;20445;-56
2022/08/06 03:09:07;;;;;;;3.30;2.47;;;21.20;99.30;;;;;;5053943;28;20529;-55
2022/08/06 03:11:36;;;;;;;4.07;2.50;;;21.30;98.80;;;;;;5053865;28;20488;-55
2022/08/06 03:14:07;;;;;;;2.23;2.03;;;21.30;99.10;;;;;;5053987;28;20778;-56
2022/08/06 03:16:37;;;;;;;3.73;2.60;;;21.30;98.20;;;;;;5054050;28;20509;-55
2022/08/06 03:19:05;;;;;;;4.40;2.77;;;21.30;98.20;;;;;;5053853;28;20449;-55
2022/08/06 03:21:34;;;;;;;3.00;2.57;;;21.20;98.20;;;;;;5053877;28;20969;-55
2022/08/06 03:24:02;;;;;;;5.73;2.47;;;21.30;98.80;;;;;;5053843;28;20828;-55
2022/08/06 03:26:31;;;;;;;3.03;2.60;;;21.20;98.50;;;;;;5053892;28;20451;-55
2022/08/06 03:29:01;;;;;;;3.83;2.43;;;21.10;99.00;;;;;;5053864;28;20485;-56
2022/08/06 03:31:33;;;;;;;2.40;2.20;;;21.20;98.60;;;;;;5053241;28;20568;-56
2022/08/06 03:34:01;;;;;;;3.40;2.80;;;21.40;98.80;;;;;;5053736;28;20521;-56
2022/08/06 03:36:28;;;;;;;2.23;1.97;;;21.40;98.50;;;;;;5053630;28;20455;-56
2022/08/06 03:39:03;;;;;;;2.63;2.43;;;21.40;97.90;;;;;;5053337;28;21008;-55
2022/08/06 03:41:33;;;;;;;2.77;2.50;;;21.30;98.30;;;;;;5053537;28;20461;-56
2022/08/06 03:44:00;;;;;;;4.30;2.47;;;21.20;98.20;;;;;;5053254;28;20432;-55
2022/08/06 03:46:35;;;;;;;5.77;3.17;;;21.30;98.50;;;;;;5053152;28;20904;-55
2022/08/06 03:49:06;;;;;;;2.53;2.33;;;21.20;98.80;;;;;;5053258;28;20516;-55
2022/08/06 03:51:36;;;;;;;3.03;2.30;;;21.40;98.40;;;;;;5053001;28;20495;-56
2022/08/06 03:54:05;;;;;;;3.40;2.50;;;21.30;98.60;;;;;;5053100;28;20540;-56
2022/08/06 03:56:36;;;;;;;3.57;2.20;;;21.00;98.50;;;;;;5053466;28;20442;-55
2022/08/06 03:59:05;;;;;;;5.70;2.60;;;21.00;98.70;;;;;;5052985;28;20450;-56
2022/08/06 04:01:38;;;;;;;3.40;2.27;;;21.10;99.10;;;;;;5052888;28;20738;-55
2022/08/06 04:04:06;;;;;;;2.70;2.50;;;21.30;98.20;;;;;;5052911;28;20937;-56
2022/08/06 04:06:34;;;;;;;8.43;3.33;;;21.30;98.90;;;;;;5052955;28;20453;-55
2022/08/06 04:09:02;;;;;;;3.20;2.40;;;21.00;98.90;;;;;;5052810;28;20436;-55
2022/08/06 04:11:30;;;;;;;4.37;2.20;;;21.10;99.20;;;;;;5053104;28;20576;-56
2022/08/06 04:13:58;;;;;;;3.13;2.53;;;21.20;98.70;;;;;;5053024;28;20828;-55
2022/08/06 04:16:27;;;;;;;2.13;2.00;;;21.20;98.60;;;;;;5052813;28;20425;-56
2022/08/06 04:18:56;;;;;;;4.27;2.43;;;21.30;99.40;;;;;;5053204;28;20465;-56
2022/08/06 04:21:25;;;;;;;3.63;2.40;;;21.20;99.00;;;;;;5052698;28;20900;-56
2022/08/06 04:23:52;;;;;;;3.30;2.20;;;21.10;98.70;;;;;;5052890;28;20441;-56
2022/08/06 04:26:23;;;;;;;2.80;2.60;;;21.00;98.90;;;;;;5052916;28;20452;-55
2022/08/06 04:28:53;;;;;;;2.70;2.50;;;21.00;99.20;;;;;;5053073;28;20459;-55
2022/08/06 04:31:21;;;;;;;2.63;2.43;;;21.00;99.20;;;;;;5053212;28;20519;-56
2022/08/06 04:33:50;;;;;;;2.20;2.10;;;20.90;99.00;;;;;;5052538;28;20814;-55
2022/08/06 04:36:20;;;;;;;2.60;2.40;;;20.90;99.40;;;;;;5052666;28;20449;-55
2022/08/06 04:38:48;;;;;;;2.30;2.20;;;21.00;98.80;;;;;;5052916;28;20453;-56
2022/08/06 04:41:16;;;;;;;2.50;2.30;;;21.10;98.90;;;;;;5053050;28;20509;-56
2022/08/06 04:43:43;;;;;;;4.03;2.67;;;20.90;98.90;;;;;;5052686;28;20481;-55
2022/08/06 04:46:11;;;;;;;4.10;2.30;;;20.80;99.50;;;;;;5052313;28;21076;-55
2022/08/06 04:48:38;;;;;;;3.37;2.30;;;21.00;99.00;;;;;;5052576;28;20441;-55
2022/08/06 04:51:06;;;;;;;2.00;1.90;;;20.80;99.70;;;;;;5052396;28;20469;-55
2022/08/06 04:53:39;;;;;;;2.63;2.10;;;20.80;99.80;;;;;;5052255;28;20499;-55
2022/08/06 04:56:07;;;;;;;2.50;2.30;;;20.90;99.70;;;;;;5052565;28;20929;-56
2022/08/06 04:58:35;;;;;;;2.70;2.30;;;21.00;99.30;;;;;;5052317;28;20956;-56
2022/08/06 05:01:02;;;;;;;4.20;2.30;;;21.00;99.60;;;;;;5052480;28;20495;-55
2022/08/06 05:03:30;;;;;;;2.77;2.47;;;20.90;99.40;;;;;;5052434;28;20441;-55
2022/08/06 05:06:03;;;;;;;2.77;2.33;;;20.80;99.80;;;;;;5052308;28;20954;-56
2022/08/06 05:08:32;;;;;;;3.43;2.37;;;20.90;99.90;;;;;;5052572;28;20434;-55
2022/08/06 05:11:06;;;;;;;2.70;2.47;;;20.80;99.90;;;;;;5052587;28;20501;-55
2022/08/06 05:13:37;;;;;;;3.07;2.20;;;20.70;99.90;;;;;;5052128;28;20561;-56
2022/08/06 05:16:08;;;;;;;3.33;2.50;;;20.60;99.80;;;;;;5056053;28;20850;-55
2022/08/06 05:18:39;;;;;;;2.33;2.13;;;20.70;99.90;;;;;;5056268;28;20448;-56
2022/08/06 05:21:08;;;;;;;8.70;2.60;;;20.80;99.90;;;;;;5056201;28;20466;-56
2022/08/06 05:23:40;;;;;;;2.87;2.67;;;20.70;99.90;;;;;;5056066;28;20943;-55
2022/08/06 05:26:10;;;;;;;2.60;2.37;;;20.70;99.90;;;;;;5056217;28;20468;-56
2022/08/06 05:28:40;;;;;;;5.87;2.67;;;20.80;99.80;;;;;;5055992;28;21004;-56
2022/08/06 05:31:07;;;;;;;3.53;2.37;;;20.60;99.90;;;;;;5055712;28;20547;-55
2022/08/06 05:33:36;;;;;;;3.43;2.50;;;20.50;99.90;;;;;;5055720;28;20576;-55
2022/08/06 05:36:05;;;;;;;2.93;2.30;;;20.60;99.90;;;;;;5055716;28;20429;-55
2022/08/06 05:38:33;;;;;;;3.73;2.33;;;20.60;99.90;;;;;;5055618;28;20430;-55
2022/08/06 05:41:00;;;;;;;2.53;2.33;;;20.50;99.90;;;;;;5056047;28;20965;-55
2022/08/06 05:43:29;;;;;;;3.77;2.53;;;20.70;99.90;;;;;;5055368;28;20965;-56
2022/08/06 05:46:02;;;;;;;3.77;2.43;;;20.80;99.90;;;;;;5055200;28;20477;-55
2022/08/06 05:48:33;;;;;;;4.00;2.57;;;20.90;99.90;;;;;;5055643;28;20484;-55
2022/08/06 05:51:07;;;;;;;2.90;2.60;;;20.80;99.90;;;;;;5055652;28;20472;-55
2022/08/06 05:53:38;;;;;;;3.70;3.00;;;20.70;99.90;;;;;;5055265;28;20552;-55
2022/08/06 05:56:11;;;;;;;6.30;2.50;;;20.70;99.90;;;;;;5055365;28;20544;-55
2022/08/06 05:58:45;;;;;;;4.57;2.73;;;20.80;99.90;;;;;;5055274;28;20417;-56
2022/08/06 06:01:13;;;;;;;5.83;3.00;;;20.50;99.90;;;;;;5055213;28;20552;-56
2022/08/06 06:03:41;;;;;;;2.60;2.40;;;20.60;99.90;;;;;;5055116;28;20536;-56
2022/08/06 06:06:10;;;;;;;2.73;2.30;;;20.90;99.90;;;;;;5055061;28;20445;-56
2022/08/06 06:08:37;;;;;;;2.83;2.60;;;21.10;99.90;;;;;;5055412;28;20442;-56
2022/08/06 06:11:07;;;;;;;2.80;2.43;;;20.90;99.90;;;;;;5055534;28;20547;-56
2022/08/06 06:13:35;;;;;;;2.60;2.40;;;20.80;99.90;;;;;;5054759;28;20565;-56
2022/08/06 06:16:11;;;;;;;2.77;2.57;;;20.70;99.90;;;;;;5054696;28;20449;-55
2022/08/06 06:18:59;;;;;;;4.50;3.20;;;20.80;99.90;;;;;;5055308;28;20460;-55
2022/08/06 06:21:43;;;;;;;10.50;2.70;;;20.70;99.90;;;;;;5054872;28;20905;-56
2022/08/06 06:24:18;;;;;;;3.30;3.00;;;20.80;99.90;;;;;;5054790;28;20898;-56
2022/08/06 06:26:49;;;;;;;3.10;2.80;;;20.70;99.90;;;;;;5054751;28;20461;-55
2022/08/06 06:29:24;;;;;;;3.10;2.80;;;20.60;99.90;;;;;;5054854;28;20512;-56
2022/08/06 06:32:03;;;;;;;2.20;2.10;;;20.60;99.90;;;;;;5054637;28;20452;-56
2022/08/06 06:34:46;;;;;;;3.10;2.80;;;20.70;99.90;;;;;;5054840;28;20480;-55
2022/08/06 06:37:20;;;;;;;2.83;2.43;;;20.80;99.90;;;;;;5054758;28;20441;-56
2022/08/06 06:39:56;;;;;;;4.60;2.93;;;20.70;99.90;;;;;;5054477;28;20446;-56
2022/08/06 06:42:30;;;;;;;3.13;2.60;;;20.80;99.90;;;;;;5054361;28;20432;-55
2022/08/06 06:45:08;;;;;;;4.87;2.60;;;20.90;99.90;;;;;;5054208;28;20483;-55
2022/08/06 06:47:45;;;;;;;3.67;2.90;;;21.00;99.90;;;;;;5054330;28;20509;-55
2022/08/06 06:50:19;;;;;;;4.40;2.80;;;21.10;99.90;;;;;;5054202;28;20775;-56
2022/08/06 06:52:52;;;;;;;3.27;2.97;;;21.30;99.90;;;;;;5054252;28;20555;-55
2022/08/06 06:55:26;;;;;;;5.73;3.00;;;21.10;99.90;;;;;;5054185;28;20949;-55
2022/08/06 06:57:57;;;;;;;3.17;2.77;;;21.10;99.90;;;;;;5054539;28;20426;-55
2022/08/06 07:00:25;;;;;;;4.13;3.00;;;21.10;99.90;;;;;;5054275;28;20882;-55
2022/08/06 07:02:56;;;;;;;2.70;2.40;;;21.30;99.90;;;;;;5054292;28;20536;-55
2022/08/06 07:05:25;;;;;;;2.93;2.73;;;21.30;99.90;;;;;;5054214;28;20475;-56
2022/08/06 07:07:53;;;;;;;3.47;2.83;;;21.40;99.90;;;;;;5054144;28;20481;-55
2022/08/06 07:10:22;;;;;;;2.73;2.53;;;21.60;99.90;;;;;;5053837;28;20534;-56
2022/08/06 07:12:50;;;;;;;4.97;3.03;;;21.60;99.90;;;;;;5053602;28;20477;-55
2022/08/06 07:15:19;;;;;;;4.57;3.20;;;21.70;99.90;;;;;;5053832;28;20485;-55
2022/08/06 07:17:47;;;;;;;3.57;3.27;;;21.80;99.90;;;;;;5053995;28;20454;-55
2022/08/06 07:20:19;;;;;;;3.20;2.90;;;21.80;99.90;;;;;;5053462;28;20552;-55
2022/08/06 07:22:47;;;;;;;4.90;2.90;;;21.60;99.60;;;;;;5053670;28;20461;-55
2022/08/06 07:25:16;;;;;;;8.77;2.70;;;21.40;99.90;;;;;;5053869;28;20532;-56
2022/08/06 07:27:47;;;;;;;5.80;2.60;;;21.50;99.90;;;;;;5053675;28;20942;-56
2022/08/06 07:30:16;;;;;;;7.53;3.00;;;21.70;99.90;;;;;;5053889;28;20591;-55
2022/08/06 07:32:44;;;;;;;5.00;3.17;;;21.70;99.90;;;;;;5053886;28;20495;-56
2022/08/06 07:35:12;;;;;;;3.40;2.90;;;21.90;99.60;;;;;;5053517;28;20536;-56
2022/08/06 07:37:45;;;;;;;3.67;2.90;;;22.00;99.50;;;;;;5052707;28;20453;-56
2022/08/06 07:40:21;;;;;;;4.70;3.27;;;21.90;99.40;;;;;;5053537;28;20568;-55
2022/08/06 07:42:55;;;;;;;3.77;2.80;;;21.90;99.70;;;;;;5053155;28;20516;-55
2022/08/06 07:45:25;;;;;;;2.90;2.70;;;21.90;99.40;;;;;;5053223;28;20484;-55
2022/08/06 07:47:56;;;;;;;5.80;3.97;;;22.00;99.40;;;;;;5053072;28;20488;-56
2022/08/06 07:50:24;;;;;;;2.80;2.60;;;22.20;99.40;;;;;;5053164;28;20502;-55
2022/08/06 07:52:56;;;;;;;2.73;2.53;;;22.30;98.80;;;;;;5053299;28;20594;-56
2022/08/06 07:55:25;;;;;;;4.63;3.17;;;22.60;98.90;;;;;;5053387;28;20429;-56
2022/08/06 07:57:53;;;;;;;3.43;2.70;;;23.10;98.10;;;;;;5053054;28;20449;-56
2022/08/06 08:00:20;;;;;;;4.13;2.70;;;23.70;97.80;;;;;;5053270;28;20471;-56
2022/08/06 08:08:15;;;;;;;2.60;2.40;;;23.80;95.80;;;;;;5052972;28;20432;-56
2022/08/06 08:10:44;;;;;;;2.70;2.50;;;24.00;96.20;;;;;;5053275;28;20857;-55
2022/08/06 08:13:12;;;;;;;5.40;3.50;;;24.00;95.70;;;;;;5052865;28;21072;-55
2022/08/06 08:15:40;;;;;;;2.93;2.63;;;24.50;94.70;;;;;;5053140;28;20488;-56
2022/08/06 08:18:07;;;;;;;2.67;2.47;;;24.90;94.80;;;;;;5052669;28;20976;-56
2022/08/06 08:20:36;;;;;;;4.23;3.10;;;24.60;94.20;;;;;;5052655;28;20834;-56
2022/08/06 08:23:06;;;;;;;5.33;2.87;;;24.30;94.60;;;;;;5053306;28;20472;-56
2022/08/06 08:25:36;;;;;;;3.73;2.83;;;24.30;94.30;;;;;;5052643;28;20448;-55
2022/08/06 08:28:04;;;;;;;2.63;2.43;;;24.10;94.10;;;;;;5052565;28;21001;-56
2022/08/06 08:30:31;;;;;;;2.47;2.27;;;24.30;94.60;;;;;;5052804;28;20473;-56
2022/08/06 08:32:59;;;;;;;4.23;2.47;;;25.00;93.30;;;;;;5052376;28;20549;-55
2022/08/06 08:35:26;;;;;;;3.00;2.40;;;25.30;93.50;;;;;;5052284;28;20445;-55
2022/08/06 08:37:53;;;;;;;3.43;2.27;;;25.80;92.10;;;;;;5052701;28;20530;-55
2022/08/06 08:40:21;;;;;;;2.67;2.47;;;26.10;93.10;;;;;;5052928;28;20508;-55
2022/08/06 08:42:53;;;;;;;3.53;2.33;;;26.20;96.00;;;;;;5052767;28;20449;-55
2022/08/06 08:45:22;;;;;;;2.93;2.70;;;27.00;90.40;;;;;;5052746;28;20485;-56
2022/08/06 08:47:52;;;;;;;4.60;2.40;;;26.70;88.90;;;;;;5052778;28;20458;-56
2022/08/06 08:50:22;;;;;;;3.33;2.40;;;26.50;89.20;;;;;;5054716;28;20878;-55
2022/08/06 08:52:51;;;;;;;2.83;2.20;;;;;;;;;;5056613;28;20816;-55
2022/08/06 08:55:23;;;;;;;4.50;2.83;;;24.70;89.90;;;;;;5056393;28;20484;-55
2022/08/06 08:57:54;;;;;;;6.57;2.70;;;24.30;90.60;;;;;;5056650;28;20430;-55
2022/08/06 09:00:21;;;;;;;3.37;2.50;;;24.00;91.50;;;;;;5056219;28;21052;-55
2022/08/06 09:02:50;;;;;;;4.30;2.80;;;23.90;92.20;;;;;;5056127;28;20873;-55
2022/08/06 09:05:17;;;;;;;4.00;2.73;;;24.10;92.10;;;;;;5056635;28;20451;-55
2022/08/06 09:07:45;;;;;;;2.63;2.43;;;23.90;92.10;;;;;;5056188;28;20937;-55
2022/08/06 09:10:12;;;;;;;9.23;3.30;;;23.80;92.50;;;;;;5056131;28;20567;-55
2022/08/06 09:12:41;;;;;;;2.67;2.47;;;23.60;92.60;;;;;;5056505;28;20782;-55
2022/08/06 09:15:10;;;;;;;2.80;2.60;;;23.40;92.20;;;;;;5055861;28;20493;-56
2022/08/06 09:17:37;;;;;;;2.73;2.53;;;23.50;92.80;;;;;;5056228;28;20445;-55
2022/08/06 09:20:06;;;;;;;4.87;3.00;;;23.60;92.30;;;;;;5055880;28;20509;-55
2022/08/06 09:22:33;;;;;;;3.40;3.10;;;23.50;92.40;;;;;;5056035;28;20473;-55
2022/08/06 09:25:01;;;;;;;2.80;2.60;;;23.50;92.50;;;;;;5056112;28;20454;-55
2022/08/06 09:27:34;;;;;;;3.10;2.90;;;23.80;92.50;;;;;;5056205;28;20540;-55
2022/08/06 09:30:05;;;;;;;2.93;2.60;;;24.30;91.50;;;;;;5056259;28;20461;-56
2022/08/06 09:32:42;;;;;;;5.23;2.73;;;25.10;91.30;;;;;;5055916;28;20433;-56
2022/08/06 09:35:19;;;;;;;3.90;3.03;;;25.60;89.60;;;;;;5055609;28;20488;-56
2022/08/06 09:37:47;;;;;;;6.50;3.23;;;25.00;89.60;;;;;;5055781;28;20453;-55
2022/08/06 09:40:16;;;;;;;3.20;2.60;;;24.60;90.50;;;;;;5056099;28;20480;-56
2022/08/06 09:42:44;;;;;;;3.40;2.67;;;24.40;90.60;;;;;;5055682;28;20532;-56
2022/08/06 09:45:13;;;;;;;3.73;2.40;;;24.30;91.80;;;;;;5055451;28;20511;-56
2022/08/06 09:47:42;;;;;;;2.93;2.73;;;25.10;90.40;;;;;;5055565;28;20460;-56
2022/08/06 09:50:10;;;;;;;4.67;3.67;;;24.80;89.70;;;;;;5055532;28;20548;-56
2022/08/06 09:52:37;;;;;;;2.90;2.70;;;24.90;89.60;;;;;;5055321;28;20449;-56
2022/08/06 09:55:06;;;;;;;2.57;2.37;;;25.00;90.60;;;;;;5055285;28;20492;-56
2022/08/06 09:57:44;;;;;;;2.90;2.60;;;24.90;89.60;;;;;;5055766;28;20449;-56
2022/08/06 10:00:12;;;;;;;3.23;2.73;;;24.90;90.30;;;;;;5055211;28;20508;-56
2022/08/06 10:02:40;;;;;;;3.10;2.43;;;24.80;87.40;;;;;;5055235;28;20449;-56
2022/08/06 10:05:11;;;;;;;2.87;2.67;;;24.40;90.00;;;;;;5055272;28;20453;-56
2022/08/06 10:07:39;;;;;;;4.07;2.67;;;24.50;89.40;;;;;;5055330;28;21004;-56
2022/08/06 10:10:07;;;;;;;3.17;2.90;;;24.50;89.50;;;;;;5055140;28;20481;-56
2022/08/06 10:12:35;;;;;;;3.20;2.90;;;24.30;88.50;;;;;;5055379;28;20535;-56
2022/08/06 10:15:02;;;;;;;3.40;2.70;;;24.10;88.80;;;;;;5054747;28;20674;-56
2022/08/06 10:17:29;;;;;;;4.63;2.87;;;;;;;;;;5054915;28;20996;-56
2022/08/06 10:20:08;;;;;;;4.23;2.50;;;24.20;89.40;;;;;;5054822;28;20465;-56
2022/08/06 10:22:49;;;;;;;3.43;3.03;;;24.20;89.70;;;;;;5055143;28;20496;-56
2022/08/06 10:25:17;;;;;;;2.93;2.50;;;24.30;89.60;;;;;;5055343;28;20425;-56
2022/08/06 10:27:45;;;;;;;2.80;2.50;;;24.30;88.90;;;;;;5054939;28;20456;-56
2022/08/06 10:30:12;;;;;;;3.10;2.83;;;24.80;88.50;;;;;;5054800;28;20458;-56
2022/08/06 10:32:48;;;;;;;3.20;2.60;;;25.70;86.70;;;;;;5054866;28;20450;-56
2022/08/06 10:35:18;;;;;;;2.70;2.50;;;25.70;85.50;;;;;;5054709;28;20977;-56
2022/08/06 10:37:51;;;;;;;4.00;2.50;;;25.90;84.70;;;;;;5054588;28;21052;-56
2022/08/06 10:40:21;;;;;;;2.90;2.70;;;25.90;83.30;;;;;;5055056;28;20489;-56
2022/08/06 10:42:49;;;;;;;3.33;3.03;;;25.70;82.10;;;;;;5054816;28;20985;-56
2022/08/06 10:45:16;;;;;;;2.87;2.63;;;25.40;83.70;;;;;;5054463;28;20556;-56
2022/08/06 10:47:46;;;;;;;3.30;2.63;;;25.30;84.20;;;;;;5054488;28;20456;-56
2022/08/06 10:50:14;;;;;;;3.27;2.97;;;25.80;84.10;;;;;;5054630;28;20560;-56
2022/08/06 10:52:42;;;;;;;3.20;2.40;;;26.70;79.80;;;;;;5054634;28;20450;-56
2022/08/06 10:55:12;;;;;;;2.50;2.30;;;28.00;77.70;;;;;;5054448;28;20859;-56
2022/08/06 10:57:40;;;;;;;3.10;2.27;;;28.30;76.90;;;;;;5054155;28;20449;-56
2022/08/06 11:00:10;;;;;;;2.93;2.63;;;28.20;76.50;;;;;;5054291;28;20526;-56
2022/08/06 11:02:40;;;;;;;3.27;2.20;;;;;;;;;;5054540;28;20861;-56
2022/08/06 11:05:13;;;;;;;4.30;2.67;;;26.70;76.70;;;;;;5054187;28;20416;-56
2022/08/06 11:08:08;;;;;;;2.90;2.43;;;26.40;77.60;;;;;;5054155;28;20508;-56
2022/08/06 11:10:52;;;;;;;2.80;2.60;;;26.30;78.20;;;;;;5054080;28;20476;-56
2022/08/06 11:13:31;;;;;;;3.10;2.80;;;26.80;76.60;;;;;;5053496;28;20440;-56
2022/08/06 11:15:58;;;;;;;2.40;2.20;;;26.50;74.40;;;;;;5053982;28;20842;-56
2022/08/06 11:18:25;;;;;;;2.60;2.40;;;26.40;76.30;;;;;;5054040;28;20449;-56
2022/08/06 11:20:54;;;;;;;4.20;2.70;;;26.20;78.10;;;;;;5053492;28;20481;-56
2022/08/06 11:23:34;;;;;;;4.00;2.13;;;26.30;76.00;;;;;;5053939;28;20480;-56
2022/08/06 11:26:04;;;;;;;3.10;2.77;;;26.00;75.70;;;;;;5053973;28;20426;-56
2022/08/06 11:29:00;;;;;;;3.60;2.77;;;26.10;77.10;;;;;;5053668;28;20473;-56
2022/08/06 11:31:36;;;;;;;3.30;2.53;;;25.70;76.80;;;;;;5053384;28;20461;-56
2022/08/06 11:34:05;;;;;;;3.10;2.60;;;25.90;78.70;;;;;;5053417;28;20465;-56
2022/08/06 11:36:45;;;;;;;2.50;2.30;;;26.60;77.10;;;;;;5053520;28;20484;-56
2022/08/06 11:39:13;;;;;;;3.10;2.50;;;28.10;74.90;;;;;;5053538;28;20823;-56
2022/08/06 11:41:54;;;;;;;3.10;2.80;;;28.80;74.40;;;;;;5053326;28;20832;-56
2022/08/06 11:44:22;;;;;;;4.90;3.10;;;28.90;71.80;;;;;;5053222;28;20430;-56
2022/08/06 11:46:50;;;;;;;3.00;2.70;;;28.10;70.90;;;;;;5053022;28;20481;-56
2022/08/06 11:49:23;;;;;;;3.07;2.87;;;27.40;73.00;;;;;;5053232;28;20449;-56
2022/08/06 11:51:56;;;;;;;3.77;2.47;;;26.70;73.30;;;;;;5052943;28;20473;-56
2022/08/06 11:54:25;;;;;;;4.80;2.73;;;27.00;73.60;;;;;;5053551;28;20481;-56
2022/08/06 11:57:23;;;;;;;2.50;2.30;;;27.00;73.40;;;;;;5053221;28;20536;-56
2022/08/06 12:00:09;;;;;;;5.10;3.10;;;26.90;72.30;;;;;;5053341;28;20499;-56
2022/08/06 12:02:56;;;;;;;3.13;2.90;;;26.70;72.70;;;;;;5053301;28;20516;-56
2022/08/06 12:05:36;;;;;;;2.50;2.30;;;;;;;;;;5052954;28;20438;-56
2022/08/06 12:08:19;;;;;;;2.73;2.53;;;;;;;;;;5053236;28;20488;-56
2022/08/06 12:11:20;;;;;;;4.90;2.57;;;27.80;71.00;;;;;;5053298;28;20499;-56
2022/08/06 12:13:48;;;;;;;3.27;2.50;;;28.40;71.20;;;;;;5046705;28;20495;-56
2022/08/06 12:16:33;;;;;;;4.27;2.87;;;27.70;67.60;;;;;;5052965;28;20481;-56
2022/08/06 12:19:01;;;;;;;6.07;2.50;;;27.90;67.30;;;;;;5053057;28;20874;-56
2022/08/06 12:21:29;;;;;;;2.50;2.27;;;28.50;68.40;;;;;;5052832;28;20469;-56
2022/08/06 12:23:56;;;;;;;3.40;2.73;;;28.40;68.20;;;;;;5053049;28;20445;-56
2022/08/06 12:26:24;;;;;;;2.77;2.57;;;27.80;66.80;;;;;;5053105;28;20456;-56
2022/08/06 12:28:53;;;;;;;2.83;2.33;;;27.40;67.40;;;;;;5052911;28;20453;-56
2022/08/06 12:31:31;;;;;;;3.93;2.53;;;27.70;67.30;;;;;;5053021;28;20564;-56
2022/08/06 12:33:58;;;;;;;2.43;2.23;;;27.90;68.70;;;;;;5052522;28;20928;-56
2022/08/06 12:36:33;;;;;;;3.07;2.47;;;28.50;67.00;;;;;;5052469;28;20537;-56
2022/08/06 12:39:02;;;;;;;2.80;2.60;;;28.50;67.50;;;;;;5052862;28;20461;-56
2022/08/06 12:41:44;;;;;;;3.50;2.33;;;28.50;65.60;;;;;;5052803;28;20882;-56
2022/08/06 12:44:14;;;;;;;2.10;1.90;;;28.40;66.60;;;;;;5049859;28;20455;-56
2022/08/06 12:46:42;;;;;;;3.13;2.83;;;28.50;67.00;;;;;;5052424;28;20477;-56
2022/08/06 12:49:10;;;;;;;2.40;2.20;;;28.70;67.10;;;;;;5052639;28;20441;-56
2022/08/06 12:51:37;;;;;;;2.87;2.67;;;28.40;66.00;;;;;;5052772;28;20504;-56
2022/08/06 12:54:08;;;;;;;4.17;2.40;;;28.00;64.90;;;;;;5052383;28;20453;-56
2022/08/06 12:56:40;;;;;;;4.67;2.33;;;28.10;63.90;;;;;;5052611;28;20932;-56
2022/08/06 12:59:11;;;;;;;2.80;2.60;;;28.30;64.10;;;;;;5053254;28;20836;-56
2022/08/06 13:01:44;;;;;;;3.57;2.80;;;27.50;64.00;;;;;;5052428;28;20465;-56
2022/08/06 13:04:12;;;;;;;2.40;2.20;;;27.00;64.30;;;;;;5052481;28;20520;-56
2022/08/06 13:06:40;;;;;;;2.47;2.27;;;27.10;65.80;;;;;;5052722;28;20802;-56
2022/08/06 13:09:08;;;;;;;2.73;2.30;;;27.00;65.20;;;;;;5052610;28;20436;-56
2022/08/06 13:11:36;;;;;;;3.27;2.73;;;26.60;67.60;;;;;;5052641;28;20504;-56